sensor_id;sensor_type;location;lat;lon;timestamp;P1;durP1;ratioP1;P2;durP2;ratioP2
19189;SDS011;9727;50.200;19.038;2024-01-16T00:00:36;17.13;;;8.50;;
19189;SDS011;9727;50.200;19.038;2024-01-16T00:03:03;16.63;;;8.40;;
19189;SDS011;9727;50.200;19.038;2024-01-16T00:05:29;17.63;;;9.20;;
19189;SDS011;9727;50.200;19.038;2024-01-16T00:07:56;18.90;;;8.70;;
19189;SDS011;9727;50.200;19.038;2024-01-16T00:10:25;17.50;;;8.93;;
19189;SDS011;9727;50.200;19.038;2024-01-16T00:12:51;19.47;;;9.47;;
19189;SDS011;9727;50.200;19.038;2024-01-16T00:15:22;17.47;;;9.43;;
19189;SDS011;9727;50.200;19.038;2024-01-16T00:17:48;18.40;;;8.43;;
19189;SDS011;9727;50.200;19.038;2024-01-16T00:20:16;18.80;;;8.83;;
19189;SDS011;9727;50.200;19.038;2024-01-16T00:22:47;17.77;;;8.33;;
19189;SDS011;9727;50.200;19.038;2024-01-16T00:25:13;16.50;;;8.67;;
19189;SDS011;9727;50.200;19.038;2024-01-16T00:27:40;16.40;;;8.40;;
19189;SDS011;9727;50.200;19.038;2024-01-16T00:30:08;16.50;;;8.43;;
19189;SDS011;9727;50.200;19.038;2024-01-16T00:32:36;19.23;;;8.93;;
19189;SDS011;9727;50.200;19.038;2024-01-16T00:35:02;15.83;;;8.13;;
19189;SDS011;9727;50.200;19.038;2024-01-16T00:37:30;17.93;;;8.37;;
19189;SDS011;9727;50.200;19.038;2024-01-16T00:39:56;16.03;;;8.03;;
19189;SDS011;9727;50.200;19.038;2024-01-16T00:42:23;14.47;;;7.83;;
19189;SDS011;9727;50.200;19.038;2024-01-16T00:44:49;14.73;;;7.80;;
19189;SDS011;9727;50.200;19.038;2024-01-16T00:47:16;18.83;;;8.40;;
19189;SDS011;9727;50.200;19.038;2024-01-16T00:49:47;22.90;;;8.80;;
19189;SDS011;9727;50.200;19.038;2024-01-16T00:52:13;17.77;;;8.63;;
19189;SDS011;9727;50.200;19.038;2024-01-16T00:54:40;15.90;;;8.80;;
19189;SDS011;9727;50.200;19.038;2024-01-16T00:57:07;17.50;;;8.77;;
19189;SDS011;9727;50.200;19.038;2024-01-16T00:59:33;17.43;;;8.80;;
19189;SDS011;9727;50.200;19.038;2024-01-16T01:02:00;15.43;;;9.17;;
19189;SDS011;9727;50.200;19.038;2024-01-16T01:04:26;17.07;;;8.77;;
19189;SDS011;9727;50.200;19.038;2024-01-16T01:06:57;17.60;;;9.03;;
19189;SDS011;9727;50.200;19.038;2024-01-16T01:09:23;16.57;;;8.97;;
19189;SDS011;9727;50.200;19.038;2024-01-16T01:11:50;17.40;;;9.40;;
19189;SDS011;9727;50.200;19.038;2024-01-16T01:14:16;17.40;;;9.30;;
19189;SDS011;9727;50.200;19.038;2024-01-16T01:16:44;16.60;;;9.53;;
19189;SDS011;9727;50.200;19.038;2024-01-16T01:19:14;18.03;;;9.93;;
19189;SDS011;9727;50.200;19.038;2024-01-16T01:21:40;15.43;;;8.63;;
19189;SDS011;9727;50.200;19.038;2024-01-16T01:24:08;18.67;;;9.47;;
19189;SDS011;9727;50.200;19.038;2024-01-16T01:26:35;19.43;;;9.67;;
19189;SDS011;9727;50.200;19.038;2024-01-16T01:29:01;17.17;;;8.83;;
19189;SDS011;9727;50.200;19.038;2024-01-16T01:31:30;19.40;;;8.93;;
19189;SDS011;9727;50.200;19.038;2024-01-16T01:33:59;17.13;;;8.80;;
19189;SDS011;9727;50.200;19.038;2024-01-16T01:36:26;17.20;;;8.40;;
19189;SDS011;9727;50.200;19.038;2024-01-16T01:38:55;15.77;;;8.30;;
19189;SDS011;9727;50.200;19.038;2024-01-16T01:41:23;17.50;;;8.90;;
19189;SDS011;9727;50.200;19.038;2024-01-16T01:43:49;16.50;;;8.67;;
19189;SDS011;9727;50.200;19.038;2024-01-16T01:46:17;17.83;;;8.90;;
19189;SDS011;9727;50.200;19.038;2024-01-16T01:48:46;16.83;;;9.50;;
19189;SDS011;9727;50.200;19.038;2024-01-16T01:51:14;15.90;;;9.10;;
19189;SDS011;9727;50.200;19.038;2024-01-16T01:53:41;16.90;;;8.83;;
19189;SDS011;9727;50.200;19.038;2024-01-16T01:56:08;15.00;;;9.07;;
19189;SDS011;9727;50.200;19.038;2024-01-16T01:58:36;15.80;;;9.63;;
19189;SDS011;9727;50.200;19.038;2024-01-16T02:01:03;15.67;;;8.37;;
19189;SDS011;9727;50.200;19.038;2024-01-16T02:03:32;13.23;;;8.17;;
19189;SDS011;9727;50.200;19.038;2024-01-16T02:05:59;17.57;;;9.20;;
19189;SDS011;9727;50.200;19.038;2024-01-16T02:08:25;16.70;;;9.40;;
19189;SDS011;9727;50.200;19.038;2024-01-16T02:10:55;17.17;;;9.87;;
19189;SDS011;9727;50.200;19.038;2024-01-16T02:13:21;17.50;;;9.20;;
19189;SDS011;9727;50.200;19.038;2024-01-16T02:15:50;17.63;;;9.30;;
19189;SDS011;9727;50.200;19.038;2024-01-16T02:18:16;14.73;;;8.47;;
19189;SDS011;9727;50.200;19.038;2024-01-16T02:20:45;17.63;;;8.50;;
19189;SDS011;9727;50.200;19.038;2024-01-16T02:23:12;16.70;;;8.60;;
19189;SDS011;9727;50.200;19.038;2024-01-16T02:25:41;17.60;;;8.87;;
19189;SDS011;9727;50.200;19.038;2024-01-16T02:28:08;15.67;;;8.33;;
19189;SDS011;9727;50.200;19.038;2024-01-16T02:30:34;14.20;;;8.17;;
19189;SDS011;9727;50.200;19.038;2024-01-16T02:33:01;15.70;;;8.37;;
19189;SDS011;9727;50.200;19.038;2024-01-16T02:35:28;15.73;;;7.80;;
19189;SDS011;9727;50.200;19.038;2024-01-16T02:37:55;14.57;;;7.70;;
19189;SDS011;9727;50.200;19.038;2024-01-16T02:40:22;15.97;;;8.13;;
19189;SDS011;9727;50.200;19.038;2024-01-16T02:42:50;14.37;;;7.43;;
19189;SDS011;9727;50.200;19.038;2024-01-16T02:45:20;14.00;;;6.60;;
19189;SDS011;9727;50.200;19.038;2024-01-16T02:47:47;12.33;;;7.20;;
19189;SDS011;9727;50.200;19.038;2024-01-16T02:50:14;12.90;;;6.53;;
19189;SDS011;9727;50.200;19.038;2024-01-16T02:52:40;11.27;;;5.87;;
19189;SDS011;9727;50.200;19.038;2024-01-16T02:55:07;11.43;;;6.67;;
19189;SDS011;9727;50.200;19.038;2024-01-16T02:57:34;12.83;;;6.17;;
19189;SDS011;9727;50.200;19.038;2024-01-16T03:00:03;9.80;;;6.00;;
19189;SDS011;9727;50.200;19.038;2024-01-16T03:02:34;12.57;;;6.03;;
19189;SDS011;9727;50.200;19.038;2024-01-16T03:05:02;12.83;;;6.40;;
19189;SDS011;9727;50.200;19.038;2024-01-16T03:07:30;10.63;;;5.30;;
19189;SDS011;9727;50.200;19.038;2024-01-16T03:10:07;11.23;;;5.67;;
19189;SDS011;9727;50.200;19.038;2024-01-16T03:12:33;9.07;;;5.27;;
19189;SDS011;9727;50.200;19.038;2024-01-16T03:15:00;11.93;;;5.67;;
19189;SDS011;9727;50.200;19.038;2024-01-16T03:17:30;10.50;;;5.63;;
19189;SDS011;9727;50.200;19.038;2024-01-16T03:19:56;15.67;;;6.30;;
19189;SDS011;9727;50.200;19.038;2024-01-16T03:22:22;13.20;;;7.17;;
19189;SDS011;9727;50.200;19.038;2024-01-16T03:24:49;10.97;;;6.90;;
19189;SDS011;9727;50.200;19.038;2024-01-16T03:27:20;12.17;;;7.47;;
19189;SDS011;9727;50.200;19.038;2024-01-16T03:29:47;16.83;;;8.07;;
19189;SDS011;9727;50.200;19.038;2024-01-16T03:32:13;13.93;;;8.60;;
19189;SDS011;9727;50.200;19.038;2024-01-16T03:34:41;19.73;;;8.90;;
19189;SDS011;9727;50.200;19.038;2024-01-16T03:37:08;13.17;;;8.37;;
19189;SDS011;9727;50.200;19.038;2024-01-16T03:39:34;17.17;;;9.87;;
19189;SDS011;9727;50.200;19.038;2024-01-16T03:42:01;18.87;;;10.30;;
19189;SDS011;9727;50.200;19.038;2024-01-16T03:44:29;14.93;;;9.10;;
19189;SDS011;9727;50.200;19.038;2024-01-16T03:46:55;14.93;;;8.23;;
19189;SDS011;9727;50.200;19.038;2024-01-16T03:49:22;16.37;;;8.37;;
19189;SDS011;9727;50.200;19.038;2024-01-16T03:51:50;15.70;;;7.43;;
19189;SDS011;9727;50.200;19.038;2024-01-16T03:54:19;15.77;;;7.70;;
19189;SDS011;9727;50.200;19.038;2024-01-16T03:56:46;14.73;;;7.53;;
19189;SDS011;9727;50.200;19.038;2024-01-16T03:59:13;17.93;;;7.53;;
19189;SDS011;9727;50.200;19.038;2024-01-16T04:01:39;11.37;;;6.50;;
19189;SDS011;9727;50.200;19.038;2024-01-16T04:04:07;10.97;;;6.30;;
19189;SDS011;9727;50.200;19.038;2024-01-16T04:06:33;10.47;;;6.00;;
19189;SDS011;9727;50.200;19.038;2024-01-16T04:09:01;10.33;;;6.03;;
19189;SDS011;9727;50.200;19.038;2024-01-16T04:11:29;9.60;;;6.27;;
19189;SDS011;9727;50.200;19.038;2024-01-16T04:13:56;9.07;;;6.40;;
19189;SDS011;9727;50.200;19.038;2024-01-16T04:16:23;10.53;;;5.97;;
19189;SDS011;9727;50.200;19.038;2024-01-16T04:18:49;8.83;;;5.53;;
19189;SDS011;9727;50.200;19.038;2024-01-16T04:21:16;8.43;;;5.43;;
19189;SDS011;9727;50.200;19.038;2024-01-16T04:23:45;8.40;;;5.03;;
19189;SDS011;9727;50.200;19.038;2024-01-16T04:26:14;7.90;;;5.27;;
19189;SDS011;9727;50.200;19.038;2024-01-16T04:28:40;7.33;;;4.87;;
19189;SDS011;9727;50.200;19.038;2024-01-16T04:31:07;7.13;;;4.80;;
19189;SDS011;9727;50.200;19.038;2024-01-16T04:33:34;10.63;;;5.10;;
19189;SDS011;9727;50.200;19.038;2024-01-16T04:36:00;8.30;;;4.50;;
19189;SDS011;9727;50.200;19.038;2024-01-16T04:38:30;6.47;;;4.50;;
19189;SDS011;9727;50.200;19.038;2024-01-16T04:40:57;8.03;;;4.53;;
19189;SDS011;9727;50.200;19.038;2024-01-16T04:43:25;6.63;;;4.13;;
19189;SDS011;9727;50.200;19.038;2024-01-16T04:45:51;9.57;;;4.93;;
19189;SDS011;9727;50.200;19.038;2024-01-16T04:48:22;6.83;;;4.60;;
19189;SDS011;9727;50.200;19.038;2024-01-16T04:50:49;6.03;;;4.03;;
19189;SDS011;9727;50.200;19.038;2024-01-16T04:53:15;7.90;;;5.00;;
19189;SDS011;9727;50.200;19.038;2024-01-16T04:55:42;8.10;;;5.30;;
19189;SDS011;9727;50.200;19.038;2024-01-16T04:58:08;8.33;;;5.10;;
19189;SDS011;9727;50.200;19.038;2024-01-16T05:00:37;8.40;;;5.10;;
19189;SDS011;9727;50.200;19.038;2024-01-16T05:03:04;7.17;;;5.10;;
19189;SDS011;9727;50.200;19.038;2024-01-16T05:05:30;10.83;;;5.77;;
19189;SDS011;9727;50.200;19.038;2024-01-16T05:07:57;9.30;;;5.10;;
19189;SDS011;9727;50.200;19.038;2024-01-16T05:10:23;9.83;;;5.23;;
19189;SDS011;9727;50.200;19.038;2024-01-16T05:12:50;11.33;;;5.57;;
19189;SDS011;9727;50.200;19.038;2024-01-16T05:15:19;10.30;;;5.07;;
19189;SDS011;9727;50.200;19.038;2024-01-16T05:17:47;8.97;;;5.00;;
19189;SDS011;9727;50.200;19.038;2024-01-16T05:20:13;8.80;;;5.43;;
19189;SDS011;9727;50.200;19.038;2024-01-16T05:22:40;9.27;;;5.13;;
19189;SDS011;9727;50.200;19.038;2024-01-16T05:25:07;9.33;;;5.00;;
19189;SDS011;9727;50.200;19.038;2024-01-16T05:27:33;10.07;;;4.80;;
19189;SDS011;9727;50.200;19.038;2024-01-16T05:30:00;10.23;;;5.30;;
19189;SDS011;9727;50.200;19.038;2024-01-16T05:32:26;9.33;;;5.30;;
19189;SDS011;9727;50.200;19.038;2024-01-16T05:34:56;10.90;;;4.83;;
19189;SDS011;9727;50.200;19.038;2024-01-16T05:37:23;10.53;;;5.70;;
19189;SDS011;9727;50.200;19.038;2024-01-16T05:39:49;8.77;;;5.17;;
19189;SDS011;9727;50.200;19.038;2024-01-16T05:42:16;8.50;;;5.07;;
19189;SDS011;9727;50.200;19.038;2024-01-16T05:44:45;7.83;;;5.30;;
19189;SDS011;9727;50.200;19.038;2024-01-16T05:47:12;9.53;;;5.40;;
19189;SDS011;9727;50.200;19.038;2024-01-16T05:49:38;10.97;;;5.27;;
19189;SDS011;9727;50.200;19.038;2024-01-16T05:52:08;10.77;;;5.27;;
19189;SDS011;9727;50.200;19.038;2024-01-16T05:54:35;12.13;;;6.00;;
19189;SDS011;9727;50.200;19.038;2024-01-16T05:57:01;8.73;;;4.97;;
19189;SDS011;9727;50.200;19.038;2024-01-16T05:59:29;9.20;;;5.40;;
19189;SDS011;9727;50.200;19.038;2024-01-16T06:01:56;10.60;;;6.00;;
19189;SDS011;9727;50.200;19.038;2024-01-16T06:04:22;9.80;;;5.73;;
19189;SDS011;9727;50.200;19.038;2024-01-16T06:06:51;14.13;;;5.93;;
19189;SDS011;9727;50.200;19.038;2024-01-16T06:09:20;12.03;;;6.07;;
19189;SDS011;9727;50.200;19.038;2024-01-16T06:11:47;12.27;;;7.30;;
19189;SDS011;9727;50.200;19.038;2024-01-16T06:14:14;15.67;;;7.90;;
19189;SDS011;9727;50.200;19.038;2024-01-16T06:16:46;15.17;;;7.77;;
19189;SDS011;9727;50.200;19.038;2024-01-16T06:19:16;18.63;;;9.57;;
19189;SDS011;9727;50.200;19.038;2024-01-16T06:21:46;20.50;;;10.97;;
19189;SDS011;9727;50.200;19.038;2024-01-16T06:24:13;19.30;;;10.80;;
19189;SDS011;9727;50.200;19.038;2024-01-16T06:26:41;22.43;;;11.60;;
19189;SDS011;9727;50.200;19.038;2024-01-16T06:29:08;18.87;;;10.73;;
19189;SDS011;9727;50.200;19.038;2024-01-16T06:31:35;17.93;;;10.97;;
19189;SDS011;9727;50.200;19.038;2024-01-16T06:34:01;23.07;;;11.60;;
19189;SDS011;9727;50.200;19.038;2024-01-16T06:36:32;16.93;;;10.63;;
19189;SDS011;9727;50.200;19.038;2024-01-16T06:38:59;18.53;;;10.67;;
19189;SDS011;9727;50.200;19.038;2024-01-16T06:41:25;23.87;;;11.33;;
19189;SDS011;9727;50.200;19.038;2024-01-16T06:43:57;26.77;;;13.30;;
19189;SDS011;9727;50.200;19.038;2024-01-16T06:46:23;25.20;;;13.80;;
19189;SDS011;9727;50.200;19.038;2024-01-16T06:48:51;29.87;;;15.23;;
19189;SDS011;9727;50.200;19.038;2024-01-16T06:51:19;25.17;;;14.97;;
19189;SDS011;9727;50.200;19.038;2024-01-16T06:53:45;27.07;;;15.13;;
19189;SDS011;9727;50.200;19.038;2024-01-16T06:56:12;26.03;;;14.83;;
19189;SDS011;9727;50.200;19.038;2024-01-16T06:58:38;25.50;;;14.63;;
19189;SDS011;9727;50.200;19.038;2024-01-16T07:01:08;28.43;;;15.33;;
19189;SDS011;9727;50.200;19.038;2024-01-16T07:03:35;25.77;;;13.90;;
19189;SDS011;9727;50.200;19.038;2024-01-16T07:06:02;25.97;;;12.70;;
19189;SDS011;9727;50.200;19.038;2024-01-16T07:08:29;24.50;;;12.00;;
19189;SDS011;9727;50.200;19.038;2024-01-16T07:10:55;20.93;;;12.13;;
19189;SDS011;9727;50.200;19.038;2024-01-16T07:13:22;22.30;;;11.90;;
19189;SDS011;9727;50.200;19.038;2024-01-16T07:15:49;19.67;;;10.60;;
19189;SDS011;9727;50.200;19.038;2024-01-16T07:18:19;19.03;;;9.70;;
19189;SDS011;9727;50.200;19.038;2024-01-16T07:20:46;16.50;;;8.43;;
19189;SDS011;9727;50.200;19.038;2024-01-16T07:23:13;12.73;;;6.87;;
19189;SDS011;9727;50.200;19.038;2024-01-16T07:25:39;13.43;;;6.67;;
19189;SDS011;9727;50.200;19.038;2024-01-16T07:28:06;13.07;;;5.77;;
19189;SDS011;9727;50.200;19.038;2024-01-16T07:30:34;9.47;;;5.27;;
19189;SDS011;9727;50.200;19.038;2024-01-16T07:33:02;9.40;;;5.27;;
19189;SDS011;9727;50.200;19.038;2024-01-16T07:35:30;10.93;;;4.97;;
19189;SDS011;9727;50.200;19.038;2024-01-16T07:37:57;9.10;;;4.77;;
19189;SDS011;9727;50.200;19.038;2024-01-16T07:40:23;9.13;;;5.03;;
19189;SDS011;9727;50.200;19.038;2024-01-16T07:42:51;12.57;;;5.13;;
19189;SDS011;9727;50.200;19.038;2024-01-16T07:45:20;9.20;;;5.23;;
19189;SDS011;9727;50.200;19.038;2024-01-16T07:47:47;12.20;;;6.17;;
19189;SDS011;9727;50.200;19.038;2024-01-16T07:50:14;11.47;;;5.53;;
19189;SDS011;9727;50.200;19.038;2024-01-16T07:52:42;14.60;;;7.27;;
19189;SDS011;9727;50.200;19.038;2024-01-16T07:55:09;14.93;;;7.63;;
19189;SDS011;9727;50.200;19.038;2024-01-16T07:57:35;15.60;;;8.10;;
19189;SDS011;9727;50.200;19.038;2024-01-16T08:00:02;14.97;;;7.67;;
19189;SDS011;9727;50.200;19.038;2024-01-16T08:02:31;14.03;;;7.17;;
19189;SDS011;9727;50.200;19.038;2024-01-16T08:05:01;19.17;;;9.07;;
19189;SDS011;9727;50.200;19.038;2024-01-16T08:07:31;16.30;;;8.67;;
19189;SDS011;9727;50.200;19.038;2024-01-16T08:09:59;17.57;;;9.20;;
19189;SDS011;9727;50.200;19.038;2024-01-16T08:12:26;20.80;;;9.43;;
19189;SDS011;9727;50.200;19.038;2024-01-16T08:14:54;22.20;;;10.23;;
19189;SDS011;9727;50.200;19.038;2024-01-16T08:17:21;16.67;;;8.87;;
19189;SDS011;9727;50.200;19.038;2024-01-16T08:19:48;22.40;;;10.73;;
19189;SDS011;9727;50.200;19.038;2024-01-16T08:22:14;20.47;;;10.80;;
19189;SDS011;9727;50.200;19.038;2024-01-16T08:24:41;24.20;;;10.47;;
19189;SDS011;9727;50.200;19.038;2024-01-16T08:27:09;27.53;;;11.70;;
19189;SDS011;9727;50.200;19.038;2024-01-16T08:29:36;21.23;;;11.00;;
19189;SDS011;9727;50.200;19.038;2024-01-16T08:32:03;26.40;;;11.57;;
19189;SDS011;9727;50.200;19.038;2024-01-16T08:34:42;24.93;;;10.90;;
19189;SDS011;9727;50.200;19.038;2024-01-16T08:37:09;28.53;;;10.97;;
19189;SDS011;9727;50.200;19.038;2024-01-16T08:39:35;22.33;;;11.43;;
19189;SDS011;9727;50.200;19.038;2024-01-16T08:42:02;24.33;;;10.67;;
19189;SDS011;9727;50.200;19.038;2024-01-16T08:44:31;24.73;;;11.33;;
19189;SDS011;9727;50.200;19.038;2024-01-16T08:46:57;24.77;;;11.03;;
19189;SDS011;9727;50.200;19.038;2024-01-16T08:49:25;20.90;;;10.93;;
19189;SDS011;9727;50.200;19.038;2024-01-16T08:52:06;22.30;;;10.17;;
19189;SDS011;9727;50.200;19.038;2024-01-16T08:54:33;21.87;;;10.43;;
19189;SDS011;9727;50.200;19.038;2024-01-16T08:56:59;23.77;;;11.13;;
19189;SDS011;9727;50.200;19.038;2024-01-16T08:59:26;23.10;;;10.27;;
19189;SDS011;9727;50.200;19.038;2024-01-16T09:01:58;26.73;;;10.67;;
19189;SDS011;9727;50.200;19.038;2024-01-16T09:04:34;24.60;;;10.73;;
19189;SDS011;9727;50.200;19.038;2024-01-16T09:07:01;22.37;;;9.77;;
19189;SDS011;9727;50.200;19.038;2024-01-16T09:09:29;20.50;;;9.03;;
19189;SDS011;9727;50.200;19.038;2024-01-16T09:11:56;19.27;;;8.80;;
19189;SDS011;9727;50.200;19.038;2024-01-16T09:14:23;24.60;;;9.40;;
19189;SDS011;9727;50.200;19.038;2024-01-16T09:16:49;18.67;;;8.33;;
19189;SDS011;9727;50.200;19.038;2024-01-16T09:19:20;21.50;;;8.97;;
19189;SDS011;9727;50.200;19.038;2024-01-16T09:21:46;18.33;;;8.77;;
19189;SDS011;9727;50.200;19.038;2024-01-16T09:24:13;16.83;;;8.53;;
19189;SDS011;9727;50.200;19.038;2024-01-16T09:26:40;20.30;;;8.80;;
19189;SDS011;9727;50.200;19.038;2024-01-16T09:29:07;21.67;;;8.00;;
19189;SDS011;9727;50.200;19.038;2024-01-16T09:31:34;14.87;;;7.60;;
19189;SDS011;9727;50.200;19.038;2024-01-16T09:34:00;18.83;;;7.97;;
19189;SDS011;9727;50.200;19.038;2024-01-16T09:36:31;17.53;;;7.57;;
19189;SDS011;9727;50.200;19.038;2024-01-16T09:39:01;15.53;;;8.47;;
19189;SDS011;9727;50.200;19.038;2024-01-16T09:41:31;16.03;;;7.47;;
19189;SDS011;9727;50.200;19.038;2024-01-16T09:43:59;13.73;;;6.90;;
19189;SDS011;9727;50.200;19.038;2024-01-16T09:46:26;19.27;;;7.37;;
19189;SDS011;9727;50.200;19.038;2024-01-16T09:49:00;18.20;;;7.37;;
19189;SDS011;9727;50.200;19.038;2024-01-16T09:51:32;18.80;;;7.00;;
19189;SDS011;9727;50.200;19.038;2024-01-16T09:54:00;20.63;;;7.27;;
19189;SDS011;9727;50.200;19.038;2024-01-16T09:56:33;16.70;;;7.37;;
19189;SDS011;9727;50.200;19.038;2024-01-16T09:59:03;15.93;;;8.00;;
19189;SDS011;9727;50.200;19.038;2024-01-16T10:01:31;18.83;;;7.40;;
19189;SDS011;9727;50.200;19.038;2024-01-16T10:04:00;17.80;;;8.03;;
19189;SDS011;9727;50.200;19.038;2024-01-16T10:06:31;18.77;;;8.50;;
19189;SDS011;9727;50.200;19.038;2024-01-16T10:09:01;18.93;;;8.53;;
19189;SDS011;9727;50.200;19.038;2024-01-16T10:11:31;17.57;;;7.53;;
19189;SDS011;9727;50.200;19.038;2024-01-16T10:13:59;19.83;;;7.63;;
19189;SDS011;9727;50.200;19.038;2024-01-16T10:16:54;15.60;;;6.90;;
19189;SDS011;9727;50.200;19.038;2024-01-16T10:19:21;16.40;;;7.17;;
19189;SDS011;9727;50.200;19.038;2024-01-16T10:21:47;22.00;;;7.40;;
19189;SDS011;9727;50.200;19.038;2024-01-16T10:24:15;13.47;;;6.07;;
19189;SDS011;9727;50.200;19.038;2024-01-16T10:26:44;15.70;;;6.10;;
19189;SDS011;9727;50.200;19.038;2024-01-16T10:29:11;13.83;;;6.13;;
19189;SDS011;9727;50.200;19.038;2024-01-16T10:31:37;15.80;;;6.33;;
19189;SDS011;9727;50.200;19.038;2024-01-16T10:34:13;13.97;;;5.90;;
19189;SDS011;9727;50.200;19.038;2024-01-16T10:36:45;12.77;;;5.50;;
19189;SDS011;9727;50.200;19.038;2024-01-16T10:39:12;15.33;;;5.97;;
19189;SDS011;9727;50.200;19.038;2024-01-16T10:41:41;16.10;;;6.13;;
19189;SDS011;9727;50.200;19.038;2024-01-16T10:44:10;11.43;;;5.10;;
19189;SDS011;9727;50.200;19.038;2024-01-16T10:46:36;14.80;;;5.10;;
19189;SDS011;9727;50.200;19.038;2024-01-16T10:49:03;11.50;;;5.33;;
19189;SDS011;9727;50.200;19.038;2024-01-16T10:51:31;10.90;;;4.23;;
19189;SDS011;9727;50.200;19.038;2024-01-16T10:53:58;7.93;;;3.93;;
19189;SDS011;9727;50.200;19.038;2024-01-16T10:56:25;11.87;;;4.20;;
19189;SDS011;9727;50.200;19.038;2024-01-16T10:59:01;8.77;;;3.50;;
19189;SDS011;9727;50.200;19.038;2024-01-16T11:01:35;3.83;;;2.67;;
19189;SDS011;9727;50.200;19.038;2024-01-16T11:04:02;5.17;;;2.60;;
19189;SDS011;9727;50.200;19.038;2024-01-16T11:06:30;5.93;;;2.50;;
19189;SDS011;9727;50.200;19.038;2024-01-16T11:08:56;7.67;;;3.20;;
19189;SDS011;9727;50.200;19.038;2024-01-16T11:11:25;7.30;;;3.10;;
19189;SDS011;9727;50.200;19.038;2024-01-16T11:13:55;4.53;;;2.67;;
19189;SDS011;9727;50.200;19.038;2024-01-16T11:16:24;8.30;;;2.70;;
19189;SDS011;9727;50.200;19.038;2024-01-16T11:18:51;5.83;;;3.00;;
19189;SDS011;9727;50.200;19.038;2024-01-16T11:21:18;5.23;;;2.70;;
19189;SDS011;9727;50.200;19.038;2024-01-16T11:23:46;6.43;;;2.80;;
19189;SDS011;9727;50.200;19.038;2024-01-16T11:26:25;7.10;;;3.17;;
19189;SDS011;9727;50.200;19.038;2024-01-16T11:28:54;7.43;;;3.40;;
19189;SDS011;9727;50.200;19.038;2024-01-16T11:31:31;9.47;;;3.50;;
19189;SDS011;9727;50.200;19.038;2024-01-16T11:33:58;7.90;;;3.80;;
19189;SDS011;9727;50.200;19.038;2024-01-16T11:39:22;7.40;;;3.43;;
19189;SDS011;9727;50.200;19.038;2024-01-16T11:41:53;8.03;;;3.90;;
19189;SDS011;9727;50.200;19.038;2024-01-16T11:47:01;7.73;;;3.23;;
19189;SDS011;9727;50.200;19.038;2024-01-16T11:49:29;6.53;;;3.30;;
19189;SDS011;9727;50.200;19.038;2024-01-16T11:51:57;5.00;;;2.80;;
19189;SDS011;9727;50.200;19.038;2024-01-16T11:54:23;5.03;;;2.40;;
19189;SDS011;9727;50.200;19.038;2024-01-16T11:57:03;6.03;;;2.63;;
19189;SDS011;9727;50.200;19.038;2024-01-16T12:02:17;9.20;;;2.97;;
19189;SDS011;9727;50.200;19.038;2024-01-16T12:04:51;5.43;;;3.50;;
19189;SDS011;9727;50.200;19.038;2024-01-16T12:07:18;7.37;;;2.87;;
19189;SDS011;9727;50.200;19.038;2024-01-16T12:09:45;6.00;;;2.97;;
19189;SDS011;9727;50.200;19.038;2024-01-16T12:12:12;5.33;;;2.67;;
19189;SDS011;9727;50.200;19.038;2024-01-16T12:14:45;4.90;;;2.47;;
19189;SDS011;9727;50.200;19.038;2024-01-16T12:17:20;4.50;;;2.50;;
19189;SDS011;9727;50.200;19.038;2024-01-16T12:19:47;5.27;;;2.80;;
19189;SDS011;9727;50.200;19.038;2024-01-16T12:22:15;4.67;;;2.30;;
19189;SDS011;9727;50.200;19.038;2024-01-16T12:24:47;6.30;;;2.27;;
19189;SDS011;9727;50.200;19.038;2024-01-16T12:27:15;5.27;;;2.47;;
19189;SDS011;9727;50.200;19.038;2024-01-16T12:29:42;5.43;;;2.50;;
19189;SDS011;9727;50.200;19.038;2024-01-16T12:32:09;5.30;;;2.43;;
19189;SDS011;9727;50.200;19.038;2024-01-16T12:34:44;4.70;;;2.70;;
19189;SDS011;9727;50.200;19.038;2024-01-16T12:37:11;6.23;;;2.43;;
19189;SDS011;9727;50.200;19.038;2024-01-16T12:39:38;3.57;;;2.00;;
19189;SDS011;9727;50.200;19.038;2024-01-16T12:42:07;4.77;;;2.50;;
19189;SDS011;9727;50.200;19.038;2024-01-16T12:44:34;3.27;;;2.43;;
19189;SDS011;9727;50.200;19.038;2024-01-16T12:47:01;3.37;;;2.30;;
19189;SDS011;9727;50.200;19.038;2024-01-16T12:49:29;3.43;;;1.93;;
19189;SDS011;9727;50.200;19.038;2024-01-16T12:52:16;3.83;;;1.97;;
19189;SDS011;9727;50.200;19.038;2024-01-16T12:54:56;5.63;;;2.17;;
19189;SDS011;9727;50.200;19.038;2024-01-16T12:57:24;6.77;;;2.43;;
19189;SDS011;9727;50.200;19.038;2024-01-16T12:59:51;2.60;;;1.97;;
19189;SDS011;9727;50.200;19.038;2024-01-16T13:02:22;5.27;;;2.43;;
19189;SDS011;9727;50.200;19.038;2024-01-16T13:04:56;3.40;;;2.40;;
19189;SDS011;9727;50.200;19.038;2024-01-16T13:07:24;5.97;;;2.53;;
19189;SDS011;9727;50.200;19.038;2024-01-16T13:10:05;5.77;;;3.00;;
19189;SDS011;9727;50.200;19.038;2024-01-16T13:12:31;7.60;;;2.97;;
19189;SDS011;9727;50.200;19.038;2024-01-16T13:14:58;6.33;;;2.93;;
19189;SDS011;9727;50.200;19.038;2024-01-16T13:17:25;7.30;;;3.00;;
19189;SDS011;9727;50.200;19.038;2024-01-16T13:19:52;7.93;;;3.33;;
19189;SDS011;9727;50.200;19.038;2024-01-16T13:22:18;6.83;;;3.20;;
19189;SDS011;9727;50.200;19.038;2024-01-16T13:24:47;8.00;;;3.53;;
19189;SDS011;9727;50.200;19.038;2024-01-16T13:27:13;8.23;;;3.50;;
19189;SDS011;9727;50.200;19.038;2024-01-16T13:29:40;6.60;;;3.60;;
19189;SDS011;9727;50.200;19.038;2024-01-16T13:32:07;7.03;;;3.37;;
19189;SDS011;9727;50.200;19.038;2024-01-16T13:34:33;5.83;;;3.40;;
19189;SDS011;9727;50.200;19.038;2024-01-16T13:37:00;5.87;;;3.30;;
19189;SDS011;9727;50.200;19.038;2024-01-16T13:39:31;7.60;;;3.90;;
19189;SDS011;9727;50.200;19.038;2024-01-16T13:42:03;7.53;;;3.90;;
19189;SDS011;9727;50.200;19.038;2024-01-16T13:44:32;6.47;;;3.60;;
19189;SDS011;9727;50.200;19.038;2024-01-16T13:46:58;5.43;;;3.00;;
19189;SDS011;9727;50.200;19.038;2024-01-16T13:49:25;7.90;;;3.90;;
19189;SDS011;9727;50.200;19.038;2024-01-16T13:51:52;6.33;;;3.23;;
19189;SDS011;9727;50.200;19.038;2024-01-16T13:54:21;7.20;;;3.60;;
19189;SDS011;9727;50.200;19.038;2024-01-16T13:56:48;6.70;;;4.10;;
19189;SDS011;9727;50.200;19.038;2024-01-16T13:59:16;7.17;;;3.60;;
19189;SDS011;9727;50.200;19.038;2024-01-16T14:01:45;7.93;;;3.23;;
19189;SDS011;9727;50.200;19.038;2024-01-16T14:04:11;7.90;;;3.87;;
19189;SDS011;9727;50.200;19.038;2024-01-16T14:06:38;9.00;;;4.13;;
19189;SDS011;9727;50.200;19.038;2024-01-16T14:09:05;9.43;;;4.63;;
19189;SDS011;9727;50.200;19.038;2024-01-16T14:11:34;9.27;;;5.00;;
19189;SDS011;9727;50.200;19.038;2024-01-16T14:14:02;12.80;;;6.10;;
19189;SDS011;9727;50.200;19.038;2024-01-16T14:16:31;11.27;;;5.87;;
19189;SDS011;9727;50.200;19.038;2024-01-16T14:18:58;10.83;;;5.37;;
19189;SDS011;9727;50.200;19.038;2024-01-16T14:21:25;14.27;;;6.50;;
19189;SDS011;9727;50.200;19.038;2024-01-16T14:23:52;11.63;;;5.73;;
19189;SDS011;9727;50.200;19.038;2024-01-16T14:26:19;13.23;;;5.97;;
19189;SDS011;9727;50.200;19.038;2024-01-16T14:28:45;10.50;;;4.87;;
19189;SDS011;9727;50.200;19.038;2024-01-16T14:31:15;11.70;;;5.37;;
19189;SDS011;9727;50.200;19.038;2024-01-16T14:33:47;9.97;;;5.20;;
19189;SDS011;9727;50.200;19.038;2024-01-16T14:36:13;10.63;;;5.20;;
19189;SDS011;9727;50.200;19.038;2024-01-16T14:38:40;10.10;;;5.10;;
19189;SDS011;9727;50.200;19.038;2024-01-16T14:41:08;12.30;;;4.90;;
19189;SDS011;9727;50.200;19.038;2024-01-16T14:43:37;12.70;;;5.17;;
19189;SDS011;9727;50.200;19.038;2024-01-16T14:46:04;10.93;;;5.83;;
19189;SDS011;9727;50.200;19.038;2024-01-16T14:48:35;10.07;;;5.23;;
19189;SDS011;9727;50.200;19.038;2024-01-16T14:51:03;9.47;;;5.60;;